sensor_id;sensor_type;location;lat;lon;timestamp;P1;durP1;ratioP1;P2;durP2;ratioP2
61570;SDS011;47463;49.884;10.010;2022-08-21T00:00:00;6.8;;;4.3;;
61570;SDS011;47463;49.884;10.010;2022-08-21T00:05:00;5.5;;;4.6;;
61570;SDS011;47463;49.884;10.010;2022-08-21T00:10:00;5.5;;;4.6;;
61570;SDS011;47463;49.884;10.010;2022-08-21T00:15:00;5.6;;;4.4;;
61570;SDS011;47463;49.884;10.010;2022-08-21T00:20:00;5.6;;;4.4;;
61570;SDS011;47463;49.884;10.010;2022-08-21T00:25:00;4.3;;;3.9;;
61570;SDS011;47463;49.884;10.010;2022-08-21T00:30:00;4.3;;;3.9;;
61570;SDS011;47463;49.884;10.010;2022-08-21T00:35:00;5.2;;;4.3;;
61570;SDS011;47463;49.884;10.010;2022-08-21T00:40:00;5.2;;;4.3;;
61570;SDS011;47463;49.884;10.010;2022-08-21T00:45:00;5.5;;;4.5;;
61570;SDS011;47463;49.884;10.010;2022-08-21T00:50:00;5.5;;;4.5;;
61570;SDS011;47463;49.884;10.010;2022-08-21T00:55:00;6;;;4.6;;
61570;SDS011;47463;49.884;10.010;2022-08-21T01:00:00;6;;;4.6;;
61570;SDS011;47463;49.884;10.010;2022-08-21T01:05:00;7.4;;;4.9;;
61570;SDS011;47463;49.884;10.010;2022-08-21T01:10:00;7.4;;;4.9;;
61570;SDS011;47463;49.884;10.010;2022-08-21T01:15:00;6.2;;;4.6;;
61570;SDS011;47463;49.884;10.010;2022-08-21T01:20:00;6.2;;;4.6;;
61570;SDS011;47463;49.884;10.010;2022-08-21T01:25:02;7.9;;;4.8;;
61570;SDS011;47463;49.884;10.010;2022-08-21T01:30:03;7.9;;;4.8;;
61570;SDS011;47463;49.884;10.010;2022-08-21T01:35:00;5.6;;;4.5;;
61570;SDS011;47463;49.884;10.010;2022-08-21T01:40:00;5.6;;;4.5;;
61570;SDS011;47463;49.884;10.010;2022-08-21T01:45:00;6.6;;;4.9;;
61570;SDS011;47463;49.884;10.010;2022-08-21T01:50:00;6.6;;;4.9;;
61570;SDS011;47463;49.884;10.010;2022-08-21T01:55:00;7.6;;;5;;
61570;SDS011;47463;49.884;10.010;2022-08-21T02:00:00;7.6;;;5;;
61570;SDS011;47463;49.884;10.010;2022-08-21T02:05:00;6.4;;;4.7;;
61570;SDS011;47463;49.884;10.010;2022-08-21T02:10:00;6.4;;;4.7;;
61570;SDS011;47463;49.884;10.010;2022-08-21T02:15:00;6.2;;;5;;
61570;SDS011;47463;49.884;10.010;2022-08-21T02:20:00;6.2;;;5;;
61570;SDS011;47463;49.884;10.010;2022-08-21T02:25:00;7.3;;;5.3;;
61570;SDS011;47463;49.884;10.010;2022-08-21T02:30:00;7.3;;;5.3;;
61570;SDS011;47463;49.884;10.010;2022-08-21T02:35:00;8.9;;;5.7;;
61570;SDS011;47463;49.884;10.010;2022-08-21T02:40:00;8.9;;;5.7;;
61570;SDS011;47463;49.884;10.010;2022-08-21T02:45:00;8.3;;;5.9;;
61570;SDS011;47463;49.884;10.010;2022-08-21T02:50:00;8.3;;;5.9;;
61570;SDS011;47463;49.884;10.010;2022-08-21T02:55:00;8.1;;;5.8;;
61570;SDS011;47463;49.884;10.010;2022-08-21T03:00:00;8.1;;;5.8;;
61570;SDS011;47463;49.884;10.010;2022-08-21T03:05:00;7.4;;;5.7;;
61570;SDS011;47463;49.884;10.010;2022-08-21T03:10:00;7.4;;;5.7;;
61570;SDS011;47463;49.884;10.010;2022-08-21T03:15:00;8.9;;;6.4;;
61570;SDS011;47463;49.884;10.010;2022-08-21T03:20:00;8.9;;;6.4;;
61570;SDS011;47463;49.884;10.010;2022-08-21T03:25:00;7.5;;;5.6;;
61570;SDS011;47463;49.884;10.010;2022-08-21T03:30:00;7.5;;;5.6;;
61570;SDS011;47463;49.884;10.010;2022-08-21T03:35:00;6.5;;;4.7;;
61570;SDS011;47463;49.884;10.010;2022-08-21T03:40:00;6.5;;;4.7;;
61570;SDS011;47463;49.884;10.010;2022-08-21T03:45:00;6.7;;;4.7;;
61570;SDS011;47463;49.884;10.010;2022-08-21T03:50:00;6.7;;;4.7;;
61570;SDS011;47463;49.884;10.010;2022-08-21T03:55:00;7.8;;;5.1;;
61570;SDS011;47463;49.884;10.010;2022-08-21T04:00:00;7.8;;;5.1;;
61570;SDS011;47463;49.884;10.010;2022-08-21T04:05:00;8.5;;;6.1;;
61570;SDS011;47463;49.884;10.010;2022-08-21T04:10:00;8.5;;;6.1;;
61570;SDS011;47463;49.884;10.010;2022-08-21T04:15:00;6.5;;;5.3;;
61570;SDS011;47463;49.884;10.010;2022-08-21T04:20:00;6.5;;;5.3;;
61570;SDS011;47463;49.884;10.010;2022-08-21T04:25:00;9.4;;;5.8;;
61570;SDS011;47463;49.884;10.010;2022-08-21T04:30:00;9.4;;;5.8;;
61570;SDS011;47463;49.884;10.010;2022-08-21T04:35:00;8.9;;;5.7;;
61570;SDS011;47463;49.884;10.010;2022-08-21T04:40:00;8.9;;;5.7;;
61570;SDS011;47463;49.884;10.010;2022-08-21T04:45:00;7.8;;;5.4;;
61570;SDS011;47463;49.884;10.010;2022-08-21T04:50:00;7.8;;;5.4;;
61570;SDS011;47463;49.884;10.010;2022-08-21T04:55:00;7.1;;;5.3;;
61570;SDS011;47463;49.884;10.010;2022-08-21T05:00:00;7.1;;;5.3;;
61570;SDS011;47463;49.884;10.010;2022-08-21T05:05:00;8.8;;;5.2;;
61570;SDS011;47463;49.884;10.010;2022-08-21T05:10:00;8.8;;;5.2;;
61570;SDS011;47463;49.884;10.010;2022-08-21T05:15:00;6.3;;;4.6;;
61570;SDS011;47463;49.884;10.010;2022-08-21T05:20:00;6.3;;;4.6;;
61570;SDS011;47463;49.884;10.010;2022-08-21T05:25:00;6.4;;;5;;
61570;SDS011;47463;49.884;10.010;2022-08-21T05:30:00;6.4;;;5;;
61570;SDS011;47463;49.884;10.010;2022-08-21T05:35:00;6.2;;;5;;
61570;SDS011;47463;49.884;10.010;2022-08-21T05:40:00;6.2;;;5;;
61570;SDS011;47463;49.884;10.010;2022-08-21T05:45:00;7.1;;;5;;
61570;SDS011;47463;49.884;10.010;2022-08-21T05:50:00;7.1;;;5;;
61570;SDS011;47463;49.884;10.010;2022-08-21T05:55:00;6.2;;;5.2;;
61570;SDS011;47463;49.884;10.010;2022-08-21T06:00:00;6.2;;;5.2;;
61570;SDS011;47463;49.884;10.010;2022-08-21T06:05:00;5.8;;;4.4;;
61570;SDS011;47463;49.884;10.010;2022-08-21T06:10:00;5.8;;;4.4;;
61570;SDS011;47463;49.884;10.010;2022-08-21T06:15:00;5.6;;;4.5;;
61570;SDS011;47463;49.884;10.010;2022-08-21T06:20:00;5.6;;;4.5;;
61570;SDS011;47463;49.884;10.010;2022-08-21T06:25:00;6.3;;;4.9;;
61570;SDS011;47463;49.884;10.010;2022-08-21T06:30:00;6.3;;;4.9;;
61570;SDS011;47463;49.884;10.010;2022-08-21T06:35:00;7.6;;;6;;
61570;SDS011;47463;49.884;10.010;2022-08-21T06:40:00;7.6;;;6;;
61570;SDS011;47463;49.884;10.010;2022-08-21T06:45:00;6.4;;;5.3;;
61570;SDS011;47463;49.884;10.010;2022-08-21T06:50:00;6.4;;;5.3;;
61570;SDS011;47463;49.884;10.010;2022-08-21T06:55:00;6.6;;;5.7;;
61570;SDS011;47463;49.884;10.010;2022-08-21T07:00:00;6.6;;;5.7;;
61570;SDS011;47463;49.884;10.010;2022-08-21T07:05:00;6.7;;;6;;
61570;SDS011;47463;49.884;10.010;2022-08-21T07:10:00;6.7;;;6;;
61570;SDS011;47463;49.884;10.010;2022-08-21T07:15:00;6.9;;;6.2;;
61570;SDS011;47463;49.884;10.010;2022-08-21T07:20:00;6.9;;;6.2;;
61570;SDS011;47463;49.884;10.010;2022-08-21T07:25:00;6.6;;;5.9;;
61570;SDS011;47463;49.884;10.010;2022-08-21T07:30:00;6.6;;;5.9;;
61570;SDS011;47463;49.884;10.010;2022-08-21T07:35:00;7.8;;;6.6;;
61570;SDS011;47463;49.884;10.010;2022-08-21T07:40:00;7.8;;;6.6;;
61570;SDS011;47463;49.884;10.010;2022-08-21T07:45:00;8;;;7.1;;
61570;SDS011;47463;49.884;10.010;2022-08-21T07:50:00;8;;;7.1;;
61570;SDS011;47463;49.884;10.010;2022-08-21T07:55:00;7.4;;;6.3;;
61570;SDS011;47463;49.884;10.010;2022-08-21T08:00:00;7.4;;;6.3;;
61570;SDS011;47463;49.884;10.010;2022-08-21T08:05:00;7;;;6;;
61570;SDS011;47463;49.884;10.010;2022-08-21T08:10:00;7;;;6;;
61570;SDS011;47463;49.884;10.010;2022-08-21T08:15:00;6.3;;;5.7;;
61570;SDS011;47463;49.884;10.010;2022-08-21T08:20:00;6.3;;;5.7;;
61570;SDS011;47463;49.884;10.010;2022-08-21T08:25:00;7.5;;;6.4;;
61570;SDS011;47463;49.884;10.010;2022-08-21T08:30:00;7.5;;;6.4;;
61570;SDS011;47463;49.884;10.010;2022-08-21T08:35:00;7.1;;;5.6;;
61570;SDS011;47463;49.884;10.010;2022-08-21T08:40:00;7.1;;;5.6;;
61570;SDS011;47463;49.884;10.010;2022-08-21T08:45:00;9;;;6.9;;
61570;SDS011;47463;49.884;10.010;2022-08-21T08:50:01;9;;;6.9;;
61570;SDS011;47463;49.884;10.010;2022-08-21T08:55:01;8.8;;;6.6;;
61570;SDS011;47463;49.884;10.010;2022-08-21T09:00:01;8.8;;;6.6;;
61570;SDS011;47463;49.884;10.010;2022-08-21T09:05:00;10.1;;;7.7;;
61570;SDS011;47463;49.884;10.010;2022-08-21T09:10:04;10.1;;;7.7;;
61570;SDS011;47463;49.884;10.010;2022-08-21T09:15:02;6.9;;;6.2;;
61570;SDS011;47463;49.884;10.010;2022-08-21T09:20:03;6.9;;;6.2;;
61570;SDS011;47463;49.884;10.010;2022-08-21T09:25:03;8.4;;;6.2;;
61570;SDS011;47463;49.884;10.010;2022-08-21T09:30:00;8.4;;;6.2;;
61570;SDS011;47463;49.884;10.010;2022-08-21T09:35:01;6.9;;;5.6;;
61570;SDS011;47463;49.884;10.010;2022-08-21T09:40:00;6.9;;;5.6;;
61570;SDS011;47463;49.884;10.010;2022-08-21T09:45:10;7.2;;;4.9;;
61570;SDS011;47463;49.884;10.010;2022-08-21T09:50:07;7.2;;;4.9;;
61570;SDS011;47463;49.884;10.010;2022-08-21T09:55:00;9.9;;;5.2;;
61570;SDS011;47463;49.884;10.010;2022-08-21T10:00:07;9.9;;;5.2;;
61570;SDS011;47463;49.884;10.010;2022-08-21T10:05:00;6.9;;;4.4;;
61570;SDS011;47463;49.884;10.010;2022-08-21T10:10:01;6.9;;;4.4;;
61570;SDS011;47463;49.884;10.010;2022-08-21T10:15:02;6.6;;;4.7;;
61570;SDS011;47463;49.884;10.010;2022-08-21T10:20:01;6.6;;;4.7;;
61570;SDS011;47463;49.884;10.010;2022-08-21T10:25:02;5.8;;;4;;
61570;SDS011;47463;49.884;10.010;2022-08-21T10:30:03;5.8;;;4;;
61570;SDS011;47463;49.884;10.010;2022-08-21T10:35:02;6.1;;;3.8;;
61570;SDS011;47463;49.884;10.010;2022-08-21T10:40:03;6.1;;;3.8;;
61570;SDS011;47463;49.884;10.010;2022-08-21T10:45:04;5.6;;;3.9;;
61570;SDS011;47463;49.884;10.010;2022-08-21T10:50:02;5.6;;;3.9;;
61570;SDS011;47463;49.884;10.010;2022-08-21T10:55:01;6.8;;;4;;
61570;SDS011;47463;49.884;10.010;2022-08-21T11:00:03;6.8;;;4;;
61570;SDS011;47463;49.884;10.010;2022-08-21T11:05:01;5.9;;;3.8;;
61570;SDS011;47463;49.884;10.010;2022-08-21T11:10:00;5.9;;;3.8;;
61570;SDS011;47463;49.884;10.010;2022-08-21T11:15:00;6.1;;;3.7;;
61570;SDS011;47463;49.884;10.010;2022-08-21T11:20:02;6.1;;;3.7;;
61570;SDS011;47463;49.884;10.010;2022-08-21T11:25:00;6;;;3.9;;
61570;SDS011;47463;49.884;10.010;2022-08-21T11:30:00;6;;;3.9;;
61570;SDS011;47463;49.884;10.010;2022-08-21T11:35:01;5.2;;;3.9;;
61570;SDS011;47463;49.884;10.010;2022-08-21T11:40:02;5.2;;;3.9;;
61570;SDS011;47463;49.884;10.010;2022-08-21T11:45:02;6.1;;;3.8;;
61570;SDS011;47463;49.884;10.010;2022-08-21T11:50:02;6.1;;;3.8;;
61570;SDS011;47463;49.884;10.010;2022-08-21T11:55:01;6.5;;;4;;
61570;SDS011;47463;49.884;10.010;2022-08-21T12:00:01;6.5;;;4;;
61570;SDS011;47463;49.884;10.010;2022-08-21T12:05:00;5.3;;;4;;
61570;SDS011;47463;49.884;10.010;2022-08-21T12:10:00;5.3;;;4;;
61570;SDS011;47463;49.884;10.010;2022-08-21T12:15:05;10.5;;;4.7;;
61570;SDS011;47463;49.884;10.010;2022-08-21T12:20:00;10.5;;;4.7;;
61570;SDS011;47463;49.884;10.010;2022-08-21T12:25:03;6.6;;;4.3;;
61570;SDS011;47463;49.884;10.010;2022-08-21T12:30:00;6.6;;;4.3;;
61570;SDS011;47463;49.884;10.010;2022-08-21T12:35:01;7.7;;;3.7;;
61570;SDS011;47463;49.884;10.010;2022-08-21T12:40:00;7.7;;;3.7;;
61570;SDS011;47463;49.884;10.010;2022-08-21T12:45:00;5.8;;;3.9;;
61570;SDS011;47463;49.884;10.010;2022-08-21T12:50:01;5.8;;;3.9;;
61570;SDS011;47463;49.884;10.010;2022-08-21T12:55:00;6;;;4;;
61570;SDS011;47463;49.884;10.010;2022-08-21T13:00:00;6;;;4;;
61570;SDS011;47463;49.884;10.010;2022-08-21T13:05:01;5.8;;;4.2;;
61570;SDS011;47463;49.884;10.010;2022-08-21T13:10:01;5.8;;;4.2;;
61570;SDS011;47463;49.884;10.010;2022-08-21T13:15:01;6.4;;;4.3;;
61570;SDS011;47463;49.884;10.010;2022-08-21T13:20:01;6.4;;;4.3;;
61570;SDS011;47463;49.884;10.010;2022-08-21T13:25:00;6.6;;;4.2;;
61570;SDS011;47463;49.884;10.010;2022-08-21T13:30:01;6.6;;;4.2;;
61570;SDS011;47463;49.884;10.010;2022-08-21T13:35:06;7.4;;;4.3;;
61570;SDS011;47463;49.884;10.010;2022-08-21T13:40:00;7.4;;;4.3;;
61570;SDS011;47463;49.884;10.010;2022-08-21T13:45:00;6.6;;;4.3;;
61570;SDS011;47463;49.884;10.010;2022-08-21T13:50:00;6.6;;;4.3;;
61570;SDS011;47463;49.884;10.010;2022-08-21T13:55:00;8.5;;;4;;
61570;SDS011;47463;49.884;10.010;2022-08-21T14:00:16;8.5;;;4;;
61570;SDS011;47463;49.884;10.010;2022-08-21T14:05:00;5.4;;;3.8;;
61570;SDS011;47463;49.884;10.010;2022-08-21T14:10:00;5.4;;;3.8;;
61570;SDS011;47463;49.884;10.010;2022-08-21T14:15:01;7;;;4.1;;
61570;SDS011;47463;49.884;10.010;2022-08-21T14:20:00;7;;;4.1;;
61570;SDS011;47463;49.884;10.010;2022-08-21T14:25:00;6.1;;;3.8;;
61570;SDS011;47463;49.884;10.010;2022-08-21T14:30:01;6.1;;;3.8;;
61570;SDS011;47463;49.884;10.010;2022-08-21T14:35:00;6.1;;;3.9;;
61570;SDS011;47463;49.884;10.010;2022-08-21T14:40:00;6.1;;;3.9;;
61570;SDS011;47463;49.884;10.010;2022-08-21T14:45:00;6.9;;;4;;
61570;SDS011;47463;49.884;10.010;2022-08-21T14:50:00;6.9;;;4;;
61570;SDS011;47463;49.884;10.010;2022-08-21T14:55:00;7.1;;;3.8;;
61570;SDS011;47463;49.884;10.010;2022-08-21T15:00:00;7.1;;;3.8;;
61570;SDS011;47463;49.884;10.010;2022-08-21T15:05:00;6.9;;;4.2;;
61570;SDS011;47463;49.884;10.010;2022-08-21T15:10:00;6.9;;;4.2;;
61570;SDS011;47463;49.884;10.010;2022-08-21T15:15:00;6.9;;;4.1;;
61570;SDS011;47463;49.884;10.010;2022-08-21T15:20:00;6.9;;;4.1;;
61570;SDS011;47463;49.884;10.010;2022-08-21T15:25:00;5.9;;;3.9;;
61570;SDS011;47463;49.884;10.010;2022-08-21T15:30:00;5.9;;;3.9;;
61570;SDS011;47463;49.884;10.010;2022-08-21T15:35:00;6.4;;;4.2;;
61570;SDS011;47463;49.884;10.010;2022-08-21T15:40:00;6.4;;;4.2;;
61570;SDS011;47463;49.884;10.010;2022-08-21T15:45:00;5.6;;;3.7;;
61570;SDS011;47463;49.884;10.010;2022-08-21T15:50:00;5.6;;;3.7;;
61570;SDS011;47463;49.884;10.010;2022-08-21T15:55:00;5.6;;;4.2;;
61570;SDS011;47463;49.884;10.010;2022-08-21T16:00:01;5.6;;;4.2;;
61570;SDS011;47463;49.884;10.010;2022-08-21T16:05:00;6;;;3.9;;
61570;SDS011;47463;49.884;10.010;2022-08-21T16:10:00;6;;;3.9;;
61570;SDS011;47463;49.884;10.010;2022-08-21T16:15:00;6.2;;;4.2;;
61570;SDS011;47463;49.884;10.010;2022-08-21T16:20:00;6.2;;;4.2;;
61570;SDS011;47463;49.884;10.010;2022-08-21T16:25:00;5.4;;;4;;
61570;SDS011;47463;49.884;10.010;2022-08-21T16:30:00;5.4;;;4;;
61570;SDS011;47463;49.884;10.010;2022-08-21T16:35:00;8.5;;;4;;
61570;SDS011;47463;49.884;10.010;2022-08-21T16:40:00;8.5;;;4;;
61570;SDS011;47463;49.884;10.010;2022-08-21T16:45:00;7.8;;;4.5;;
61570;SDS011;47463;49.884;10.010;2022-08-21T16:50:00;7.8;;;4.5;;
61570;SDS011;47463;49.884;10.010;2022-08-21T16:55:00;5.7;;;4.2;;
61570;SDS011;47463;49.884;10.010;2022-08-21T17:00:00;5.7;;;4.2;;
61570;SDS011;47463;49.884;10.010;2022-08-21T17:05:00;6.3;;;4.3;;
61570;SDS011;47463;49.884;10.010;2022-08-21T17:10:00;6.3;;;4.3;;
61570;SDS011;47463;49.884;10.010;2022-08-21T17:15:01;6.8;;;4.2;;
61570;SDS011;47463;49.884;10.010;2022-08-21T17:20:00;6.8;;;4.2;;
61570;SDS011;47463;49.884;10.010;2022-08-21T17:25:00;6.1;;;3.7;;
61570;SDS011;47463;49.884;10.010;2022-08-21T17:30:00;6.1;;;3.7;;
61570;SDS011;47463;49.884;10.010;2022-08-21T17:35:00;8.1;;;4.3;;
61570;SDS011;47463;49.884;10.010;2022-08-21T17:40:00;8.1;;;4.3;;
61570;SDS011;47463;49.884;10.010;2022-08-21T17:45:00;9.6;;;3.7;;
61570;SDS011;47463;49.884;10.010;2022-08-21T17:50:00;9.6;;;3.7;;
61570;SDS011;47463;49.884;10.010;2022-08-21T17:55:00;8.1;;;4;;
61570;SDS011;47463;49.884;10.010;2022-08-21T18:00:00;8.1;;;4;;
61570;SDS011;47463;49.884;10.010;2022-08-21T18:05:00;5.5;;;3.9;;
61570;SDS011;47463;49.884;10.010;2022-08-21T18:10:00;5.5;;;3.9;;
61570;SDS011;47463;49.884;10.010;2022-08-21T18:15:00;6.9;;;4.1;;
61570;SDS011;47463;49.884;10.010;2022-08-21T18:20:00;6.9;;;4.1;;
61570;SDS011;47463;49.884;10.010;2022-08-21T18:25:00;6.1;;;4;;
61570;SDS011;47463;49.884;10.010;2022-08-21T18:30:00;6.1;;;4;;
61570;SDS011;47463;49.884;10.010;2022-08-21T18:35:00;5.5;;;4.1;;
61570;SDS011;47463;49.884;10.010;2022-08-21T18:40:00;5.5;;;4.1;;
61570;SDS011;47463;49.884;10.010;2022-08-21T18:45:00;8.8;;;4.2;;
61570;SDS011;47463;49.884;10.010;2022-08-21T18:50:00;8.8;;;4.2;;
61570;SDS011;47463;49.884;10.010;2022-08-21T18:55:00;6.3;;;4;;
61570;SDS011;47463;49.884;10.010;2022-08-21T19:00:00;6.3;;;4;;
61570;SDS011;47463;49.884;10.010;2022-08-21T19:05:00;6.9;;;4.5;;
61570;SDS011;47463;49.884;10.010;2022-08-21T19:10:00;6.9;;;4.5;;
61570;SDS011;47463;49.884;10.010;2022-08-21T19:15:00;6.6;;;4;;
61570;SDS011;47463;49.884;10.010;2022-08-21T19:20:00;6.6;;;4;;
61570;SDS011;47463;49.884;10.010;2022-08-21T19:25:00;5.4;;;3.9;;
61570;SDS011;47463;49.884;10.010;2022-08-21T19:30:00;5.4;;;3.9;;
61570;SDS011;47463;49.884;10.010;2022-08-21T19:35:00;7.1;;;4.1;;
61570;SDS011;47463;49.884;10.010;2022-08-21T19:40:00;7.1;;;4.1;;
61570;SDS011;47463;49.884;10.010;2022-08-21T19:45:00;7.1;;;4.4;;
61570;SDS011;47463;49.884;10.010;2022-08-21T19:50:01;7.1;;;4.4;;
61570;SDS011;47463;49.884;10.010;2022-08-21T19:55:00;6;;;4.4;;
61570;SDS011;47463;49.884;10.010;2022-08-21T20:00:00;6;;;4.4;;
61570;SDS011;47463;49.884;10.010;2022-08-21T20:05:00;6.4;;;4.2;;
61570;SDS011;47463;49.884;10.010;2022-08-21T20:10:00;6.4;;;4.2;;
61570;SDS011;47463;49.884;10.010;2022-08-21T20:15:00;6.7;;;4.4;;
61570;SDS011;47463;49.884;10.010;2022-08-21T20:20:00;6.7;;;4.4;;
61570;SDS011;47463;49.884;10.010;2022-08-21T20:25:00;6.9;;;4.2;;
61570;SDS011;47463;49.884;10.010;2022-08-21T20:30:00;6.9;;;4.2;;
61570;SDS011;47463;49.884;10.010;2022-08-21T20:35:00;5.7;;;4.2;;
61570;SDS011;47463;49.884;10.010;2022-08-21T20:40:00;5.7;;;4.2;;
61570;SDS011;47463;49.884;10.010;2022-08-21T20:45:00;7;;;4.3;;
61570;SDS011;47463;49.884;10.010;2022-08-21T20:50:01;7;;;4.3;;
61570;SDS011;47463;49.884;10.010;2022-08-21T20:55:02;6.7;;;4.5;;
61570;SDS011;47463;49.884;10.010;2022-08-21T21:00:00;6.7;;;4.5;;
61570;SDS011;47463;49.884;10.010;2022-08-21T21:05:01;7.2;;;4.1;;
61570;SDS011;47463;49.884;10.010;2022-08-21T21:10:00;7.2;;;4.1;;
61570;SDS011;47463;49.884;10.010;2022-08-21T21:15:05;5.1;;;4.2;;
61570;SDS011;47463;49.884;10.010;2022-08-21T21:20:00;5.1;;;4.2;;
61570;SDS011;47463;49.884;10.010;2022-08-21T21:25:02;5.7;;;4;;
61570;SDS011;47463;49.884;10.010;2022-08-21T21:30:01;5.7;;;4;;
61570;SDS011;47463;49.884;10.010;2022-08-21T21:35:00;7.7;;;4.2;;
61570;SDS011;47463;49.884;10.010;2022-08-21T21:40:02;7.7;;;4.2;;
61570;SDS011;47463;49.884;10.010;2022-08-21T21:45:02;6.3;;;4.1;;
61570;SDS011;47463;49.884;10.010;2022-08-21T21:50:03;6.3;;;4.1;;
61570;SDS011;47463;49.884;10.010;2022-08-21T21:55:03;6;;;4.2;;
61570;SDS011;47463;49.884;10.010;2022-08-21T22:00:00;6;;;4.2;;
61570;SDS011;47463;49.884;10.010;2022-08-21T22:05:01;6.9;;;4.4;;
61570;SDS011;47463;49.884;10.010;2022-08-21T22:10:01;6.9;;;4.4;;
61570;SDS011;47463;49.884;10.010;2022-08-21T22:15:00;5.8;;;3.9;;
61570;SDS011;47463;49.884;10.010;2022-08-21T22:20:02;5.8;;;3.9;;
61570;SDS011;47463;49.884;10.010;2022-08-21T22:25:02;5.8;;;3.4;;
61570;SDS011;47463;49.884;10.010;2022-08-21T22:30:01;5.8;;;3.4;;
61570;SDS011;47463;49.884;10.010;2022-08-21T22:35:01;5.4;;;3.5;;
61570;SDS011;47463;49.884;10.010;2022-08-21T22:40:00;5.4;;;3.5;;
61570;SDS011;47463;49.884;10.010;2022-08-21T22:45:00;7.2;;;4;;
61570;SDS011;47463;49.884;10.010;2022-08-21T22:50:00;7.2;;;4;;
61570;SDS011;47463;49.884;10.010;2022-08-21T22:55:00;5.4;;;3.7;;
61570;SDS011;47463;49.884;10.010;2022-08-21T23:00:00;5.4;;;3.7;;
61570;SDS011;47463;49.884;10.010;2022-08-21T23:05:01;7.8;;;3.6;;
61570;SDS011;47463;49.884;10.010;2022-08-21T23:10:00;7.8;;;3.6;;
61570;SDS011;47463;49.884;10.010;2022-08-21T23:15:00;7.4;;;4;;
61570;SDS011;47463;49.884;10.010;2022-08-21T23:20:02;7.4;;;4;;
61570;SDS011;47463;49.884;10.010;2022-08-21T23:25:03;6.4;;;4;;
61570;SDS011;47463;49.884;10.010;2022-08-21T23:30:03;6.4;;;4;;
61570;SDS011;47463;49.884;10.010;2022-08-21T23:35:02;5.5;;;3.8;;
61570;SDS011;47463;49.884;10.010;2022-08-21T23:40:03;5.5;;;3.8;;
61570;SDS011;47463;49.884;10.010;2022-08-21T23:45:02;5.8;;;4.2;;
61570;SDS011;47463;49.884;10.010;2022-08-21T23:50:02;5.8;;;4.2;;
61570;SDS011;47463;49.884;10.010;2022-08-21T23:55:05;5.1;;;3.7;;
